首页
METAR-TAF:

METAR-TAF

机场 :

维多利亚国际机场

維多利亞, 不列颠哥伦比亚, 加拿大

纬度: 48-39N, 经度: 123-26W, 海拔: 20米

当前天气观测

该预报发布于54分钟前的00:00 UTC
风速4节,风向东转东南
温度 13°C
湿度 67%
气压 1016 hPa
能見度: 48.3公里
少量云层高于2800英尺, 塔状积云.
散云层高于5200英尺
多云层高于6800英尺
多云层高于25000英尺
小阵雨

METAR: CYYJ 170000Z 11004KT 30SM -SHRA FEW028TCU SCT052 BKN068 BKN250 13/07 A3001 RMK TCU1SC3AC3CI1 TCU TR SLP165

时间: 17:54 (00:54 UTC)

预报

该预报发布于1小时和14分钟前的23:40 UTC
预报有效从17日的 00点(UTC)到 17日的 24点(UTC)
风速8节,风向东转东南
能見度: 10公里
少量云层高于3000英尺
多云层高于6000英尺
多云层高于20000英尺
短暂存在
从 17日的 00点(UTC)到 17日的 06点(UTC)
能見度: 10公里
散云层高于3000英尺
多云层高于4000英尺
小雨
成为
从 17日的 04点(UTC)到 17日的 06点(UTC)
风速8节,风向西
从 17日的 0600点(UTC)
风速8节,风向西
能見度: 10公里
多云层高于4000英尺
短暂存在
从 17日的 06点(UTC)到 17日的 15点(UTC)
散云层高于4000英尺
从 17日的 1500点(UTC)
风速3节,风向多变
能見度: 10公里
散云层高于2000英尺
多云层高于3000英尺
成为
从 17日的 17点(UTC)到 17日的 19点(UTC)
风速8节,风向

TAF: CYYJ 162340Z 1700/1724 12008KT P6SM FEW030 BKN060 BKN200 TEMPO 1700/1706 P6SM -RA SCT030 BKN040 BECMG 1704/1706 27008KT FM170600 27008KT P6SM BKN040 TEMPO 1706/1715 SCT040 FM171500 VRB03KT P6SM SCT020 BKN030 BECMG 1717/1719 09008KT RMK NXT FCST BY 170600Z

超过4000个机场的气象观测和天气预报(METAR&TAF报告)。

可查询的气象台以黄色和红色小点在地图上表示。

将鼠标移到小点上方,可查看气象台名称。

然后点击查看天气观测和预报。

如需切换地图:点击带黑十字的绿色按钮放大地图;点击带横线的绿色按钮缩小地图;或者点击绿色箭头查看邻近地区的地图。


METAR-TAF: